Aeroporto :
LOGIN :

Iscrizione | Disclaimer

   EN    FR    IT 

 










Sommario :    VFR   VFR Marginale   IFR   IFR Intensivo   IFR Molto Intensivo
Visibilità : 
Base nubi : 
>= 8 km
>= 3000ft
5 / 8 km
1000 / 3000 ft
1500m / 5 km
500 / 1000 ft
800 / 1500m
200 / 500 ft
< 800m
< 200 ft
Simboli :   Temporali  Nebbia  Neve Forte  Precipitazioni Forti  Vento > 20 kt
SIGMETs :   Varie  Temporali  Ghiacco  Turbolenza  Onda orograficha  Ceneri Vulcaniche






- Altitudine del aeroporto : 226 ft
- Codice IATA : BEX


EGUB - RAF Benson

ULTIMO METAR :
  • 171750Z AUTO 21007KT 9999 // NCD 04/02 Q1016

METARs OBSOLETI :
  • 171650Z AUTO 22008KT 9999 // FEW060/// BKN130/// 04/02 Q1016
  • 171550Z 23010KT 9999 FEW020 SCT050 06/02 Q1015 RMK BLU
  • 171520Z 24010KT 9999 SCT020 BKN050 BKN120 06/03 Q1015 TEMPO FEW020 RMK WHT TEMPO BLU
  • 171450Z 24011KT 9999 SCT020 BKN040 07/03 Q1014 TEMPO 7000 SHRA RMK WHT TEMPO WHT

Previsioni scadute.
ATIS : +44 1491-837766 (x7524)



MetMap, La meteo Aeronautica in un colpo d'occhio ! - Copyright ORBIFLY Dicembre 2007 - Disclaimer

ORBIFLY MET'MAP TEAM :

Programmazione e sviluppo : Alexandra Zaïnal
Concezione : Baudouin d'Aumeries
Aiuto per la programmazione : Marc-Olivier Méhu
Supporto tecnico e logistico : Manuel Goepfert
Aiuto per la traduzione : Arnaldo La Scala

Contatto : metmap@orbifly.com




FONTI E CREDITI :

   NOAA